createdAt,value
2022-08-31T00:02:33.561Z,18.78
2022-08-31T00:05:40.599Z,19.04
2022-08-31T00:08:45.580Z,19.10
2022-08-31T00:11:50.265Z,19.32
2022-08-31T00:14:55.972Z,19.20
2022-08-31T00:18:00.851Z,19.20
2022-08-31T00:21:06.473Z,19.18
2022-08-31T00:24:11.159Z,19.17
2022-08-31T00:27:16.270Z,19.31
2022-08-31T00:30:20.910Z,19.35
2022-08-31T00:33:25.607Z,19.65
2022-08-31T00:36:30.178Z,19.90
2022-08-31T00:39:34.658Z,20.14
2022-08-31T00:42:39.297Z,19.83
2022-08-31T00:45:43.909Z,19.52
2022-08-31T00:49:02.623Z,19.21
2022-08-31T00:52:10.445Z,19.66
2022-08-31T00:55:33.424Z,19.60
2022-08-31T00:58:38.268Z,19.95
2022-08-31T01:01:43.429Z,20.47
2022-08-31T01:04:47.983Z,22.03
2022-08-31T01:07:54.116Z,22.91
2022-08-31T01:10:59.878Z,24.15
2022-08-31T01:14:05.070Z,24.37
2022-08-31T01:17:10.732Z,24.89
2022-08-31T01:20:22.899Z,25.36
2022-08-31T01:23:36.308Z,25.63
2022-08-31T01:26:41.410Z,25.27
2022-08-31T01:29:46.487Z,25.70
2022-08-31T01:32:51.689Z,25.79
2022-08-31T01:35:56.040Z,26.35
2022-08-31T01:39:01.040Z,26.48
2022-08-31T01:42:06.043Z,26.57
2022-08-31T01:45:12.873Z,26.97
2022-08-31T01:48:18.539Z,26.47
2022-08-31T01:51:24.490Z,26.50
2022-08-31T01:54:29.219Z,26.29
2022-08-31T01:57:34.683Z,25.97
2022-08-31T02:01:02.403Z,25.89
2022-08-31T02:04:17.662Z,25.96
2022-08-31T02:07:22.175Z,25.80
2022-08-31T02:10:27.261Z,25.57
2022-08-31T02:13:31.334Z,25.53
2022-08-31T02:16:37.413Z,25.78
2022-08-31T02:19:43.816Z,25.44
2022-08-31T02:22:49.574Z,25.06
2022-08-31T02:25:54.354Z,25.02
2022-08-31T02:28:59.347Z,25.04
2022-08-31T02:32:04.482Z,25.30
2022-08-31T02:35:10.179Z,25.38
2022-08-31T02:38:14.763Z,25.51
2022-08-31T02:41:19.526Z,25.35
2022-08-31T02:44:25.842Z,25.19
2022-08-31T02:47:32.160Z,24.93
2022-08-31T02:50:53.950Z,24.80
2022-08-31T02:53:58.722Z,24.43
2022-08-31T02:57:04.209Z,24.47
2022-08-31T03:00:11.089Z,24.46
2022-08-31T03:03:17.349Z,24.59
2022-08-31T03:06:23.756Z,24.36
2022-08-31T03:09:28.337Z,24.20
2022-08-31T03:12:33.122Z,24.08
2022-08-31T03:15:37.864Z,24.03
2022-08-31T03:18:43.807Z,23.91
2022-08-31T03:21:48.519Z,23.72
2022-08-31T03:25:01.005Z,23.87
2022-08-31T03:28:08.614Z,23.93
2022-08-31T03:31:16.916Z,23.91
2022-08-31T03:34:21.695Z,23.85
2022-08-31T03:37:26.755Z,23.92
2022-08-31T03:40:34.856Z,23.91
2022-08-31T03:43:40.555Z,23.90
2022-08-31T03:46:46.180Z,23.76
2022-08-31T03:49:51.081Z,23.85
2022-08-31T03:53:08.496Z,23.77
2022-08-31T03:56:13.190Z,23.68
2022-08-31T03:59:19.359Z,23.83
2022-08-31T04:02:46.918Z,23.61
2022-08-31T04:05:57.385Z,23.66
2022-08-31T04:09:37.155Z,23.83
2022-08-31T04:12:42.707Z,23.88
2022-08-31T04:16:09.995Z,23.78
2022-08-31T04:19:34.807Z,23.74
2022-08-31T04:22:53.123Z,23.96
2022-08-31T04:26:06.833Z,23.52
2022-08-31T04:29:13.610Z,23.72
2022-08-31T04:32:19.235Z,23.79
2022-08-31T04:35:24.005Z,23.81
2022-08-31T04:38:28.651Z,23.77
2022-08-31T04:41:38.572Z,23.70
2022-08-31T04:44:45.083Z,23.69
2022-08-31T04:47:49.826Z,23.78
2022-08-31T04:51:02.100Z,23.76
2022-08-31T04:54:09.370Z,23.77
2022-08-31T04:57:14.190Z,23.82
2022-08-31T05:00:19.122Z,23.76
2022-08-31T05:03:51.326Z,23.77
2022-08-31T05:06:56.352Z,23.78
2022-08-31T05:10:00.976Z,23.68
2022-08-31T05:13:06.945Z,23.75
2022-08-31T05:16:13.851Z,23.73
2022-08-31T05:19:19.669Z,23.63
2022-08-31T05:22:25.327Z,23.61
2022-08-31T05:25:32.136Z,23.72
2022-08-31T05:28:37.545Z,23.65
2022-08-31T05:31:42.800Z,23.65
2022-08-31T05:34:47.450Z,23.76
2022-08-31T05:37:52.644Z,23.76
2022-08-31T05:41:01.128Z,23.62
2022-08-31T05:44:06.347Z,23.74
2022-08-31T05:47:12.779Z,23.63
2022-08-31T05:50:19.459Z,23.67
2022-08-31T05:53:24.224Z,23.66
2022-08-31T05:56:30.751Z,23.66
2022-08-31T05:59:36.911Z,23.56
2022-08-31T06:02:41.872Z,23.81
2022-08-31T06:05:51.447Z,23.67
2022-08-31T06:08:57.893Z,23.81
2022-08-31T06:12:04.311Z,23.62
2022-08-31T06:15:12.003Z,23.20
2022-08-31T06:18:16.726Z,23.36
2022-08-31T06:21:24.497Z,23.51
2022-08-31T06:24:30.387Z,23.58
2022-08-31T06:27:39.603Z,23.58
2022-08-31T06:30:54.919Z,23.58
2022-08-31T06:34:02.386Z,23.72
2022-08-31T06:37:27.172Z,23.64
2022-08-31T06:40:52.316Z,23.60
2022-08-31T06:44:30.513Z,23.59
2022-08-31T06:47:47.371Z,23.63
2022-08-31T06:51:00.067Z,23.59
2022-08-31T06:54:28.623Z,23.56
2022-08-31T06:57:52.792Z,23.40
2022-08-31T07:01:20.600Z,23.47
2022-08-31T07:04:55.331Z,23.35
2022-08-31T07:08:00.155Z,23.45
2022-08-31T07:11:05.190Z,23.36
2022-08-31T07:14:13.239Z,23.46
2022-08-31T07:17:18.730Z,23.41
2022-08-31T07:20:23.614Z,23.45
2022-08-31T07:23:28.583Z,23.39
2022-08-31T07:26:49.853Z,23.38
2022-08-31T07:30:01.089Z,23.23
2022-08-31T07:33:11.854Z,23.25
2022-08-31T07:36:26.956Z,23.15
2022-08-31T07:40:06.221Z,23.18
2022-08-31T07:43:12.435Z,23.09
2022-08-31T07:46:18.162Z,23.05
2022-08-31T07:49:23.943Z,23.06
2022-08-31T07:52:45.763Z,23.04
2022-08-31T07:56:18.908Z,22.97
2022-08-31T07:59:24.598Z,22.99
2022-08-31T08:02:39.215Z,22.86
2022-08-31T08:05:44.154Z,22.87
2022-08-31T08:09:23.938Z,22.66
2022-08-31T08:12:56.864Z,22.63
2022-08-31T08:16:19.038Z,22.40
2022-08-31T08:19:36.399Z,22.22
2022-08-31T08:22:54.326Z,22.02
2022-08-31T08:26:21.288Z,21.96
2022-08-31T08:29:42.532Z,21.96
2022-08-31T08:32:53.290Z,22.05
2022-08-31T08:36:01.424Z,22.03
2022-08-31T08:39:09.654Z,21.90
2022-08-31T08:42:28.127Z,21.87
2022-08-31T08:45:34.713Z,21.67
2022-08-31T08:48:42.047Z,21.66
2022-08-31T08:51:53.799Z,21.62
2022-08-31T08:55:08.455Z,21.61
2022-08-31T08:58:16.305Z,21.44
2022-08-31T09:01:28.182Z,21.35
2022-08-31T09:04:41.291Z,21.31
2022-08-31T09:08:12.378Z,21.17
2022-08-31T09:11:26.461Z,21.00
2022-08-31T09:14:48.592Z,20.90
2022-08-31T09:18:11.596Z,20.75
2022-08-31T09:21:26.772Z,20.64
2022-08-31T09:24:32.608Z,20.43
2022-08-31T09:28:03.266Z,20.25
2022-08-31T09:31:08.227Z,20.31
2022-08-31T09:34:37.162Z,20.23
2022-08-31T09:37:47.092Z,20.33
2022-08-31T09:40:53.849Z,20.31
2022-08-31T09:44:23.426Z,20.17
2022-08-31T09:47:45.353Z,20.08
2022-08-31T09:51:01.861Z,19.91
2022-08-31T09:54:47.194Z,19.63
2022-08-31T09:58:09.299Z,19.49
2022-08-31T10:01:19.891Z,19.36
2022-08-31T10:04:28.576Z,19.34
2022-08-31T10:07:57.746Z,19.33
2022-08-31T10:11:12.116Z,19.38
2022-08-31T10:14:45.480Z,19.25
2022-08-31T10:18:04.103Z,19.05
2022-08-31T10:21:14.851Z,18.91
2022-08-31T10:24:47.008Z,18.91
2022-08-31T10:28:07.160Z,18.87
2022-08-31T10:31:37.699Z,18.74
2022-08-31T10:35:01.316Z,18.47
2022-08-31T10:38:34.334Z,18.40
2022-08-31T10:41:51.931Z,18.16
2022-08-31T10:45:10.045Z,18.31
2022-08-31T10:48:14.895Z,18.16
2022-08-31T10:51:24.214Z,17.96
2022-08-31T10:55:06.353Z,17.93
2022-08-31T10:58:48.084Z,17.92
2022-08-31T11:01:58.893Z,17.77
2022-08-31T11:05:07.874Z,17.62
2022-08-31T11:08:31.228Z,17.56
2022-08-31T11:11:44.148Z,17.36
2022-08-31T11:15:13.879Z,17.40
2022-08-31T11:18:41.796Z,17.34
2022-08-31T11:21:58.272Z,17.24
2022-08-31T11:25:04.231Z,17.11
2022-08-31T11:28:35.037Z,17.01
2022-08-31T11:31:41.309Z,17.08
2022-08-31T11:34:58.508Z,16.77
2022-08-31T11:38:03.246Z,16.86
2022-08-31T11:41:11.998Z,16.91
2022-08-31T11:44:37.311Z,16.92
2022-08-31T11:47:44.160Z,16.66
2022-08-31T11:50:58.162Z,16.62
2022-08-31T11:54:12.743Z,16.59
2022-08-31T11:57:22.715Z,16.48
2022-08-31T12:00:52.181Z,16.41
2022-08-31T12:04:08.552Z,16.48
2022-08-31T12:07:37.384Z,16.48
2022-08-31T12:11:03.991Z,16.32
2022-08-31T12:14:52.121Z,16.36
2022-08-31T12:18:31.028Z,16.36
2022-08-31T12:21:57.599Z,16.26
2022-08-31T12:25:42.167Z,16.14
2022-08-31T12:29:17.131Z,16.15
2022-08-31T12:32:25.153Z,16.12
2022-08-31T12:35:32.382Z,16.00
2022-08-31T12:38:37.757Z,16.10
2022-08-31T12:41:57.795Z,15.99
2022-08-31T12:45:04.056Z,15.87
2022-08-31T12:48:39.753Z,15.81
2022-08-31T12:51:52.889Z,15.85
2022-08-31T12:55:28.128Z,15.92
2022-08-31T12:58:52.082Z,16.13
2022-08-31T13:01:57.104Z,16.01
2022-08-31T13:05:02.233Z,15.86
2022-08-31T13:08:23.841Z,15.64
2022-08-31T13:11:57.197Z,15.69
2022-08-31T13:15:02.106Z,15.68
2022-08-31T13:18:15.308Z,15.55
2022-08-31T13:21:23.600Z,15.55
2022-08-31T13:24:31.856Z,15.43
2022-08-31T13:27:37.313Z,15.46
2022-08-31T13:30:55.082Z,15.38
2022-08-31T13:34:03.758Z,15.49
2022-08-31T13:37:12.557Z,15.55
2022-08-31T13:40:20.492Z,15.50
2022-08-31T13:43:28.894Z,15.23
2022-08-31T13:46:44.704Z,15.18
2022-08-31T13:49:54.094Z,15.19
2022-08-31T13:56:48.413Z,15.07
2022-08-31T13:59:54.042Z,14.88
2022-08-31T14:03:00.022Z,14.85
2022-08-31T14:06:24.736Z,14.87
2022-08-31T14:09:29.258Z,15.03
2022-08-31T14:12:36.230Z,15.17
2022-08-31T14:16:03.885Z,14.94
2022-08-31T14:19:11.597Z,14.87
2022-08-31T14:22:33.218Z,14.80
2022-08-31T14:25:38.033Z,14.73
2022-08-31T14:28:45.986Z,14.73
2022-08-31T14:31:53.516Z,14.48
2022-08-31T14:34:58.786Z,14.46
2022-08-31T14:38:03.416Z,14.62
2022-08-31T14:41:10.418Z,14.56
2022-08-31T14:44:15.498Z,14.57
2022-08-31T14:47:22.084Z,14.71
2022-08-31T14:50:27.947Z,14.64
2022-08-31T14:53:34.634Z,14.69
2022-08-31T14:56:51.146Z,14.61
2022-08-31T14:59:58.453Z,14.57
2022-08-31T15:03:03.905Z,14.50
2022-08-31T15:06:09.943Z,14.46
2022-08-31T15:09:15.286Z,14.66
2022-08-31T15:12:20.260Z,14.52
2022-08-31T15:15:25.216Z,14.57
2022-08-31T15:18:30.039Z,14.43
2022-08-31T15:21:34.808Z,14.45
2022-08-31T15:24:48.751Z,14.54
2022-08-31T15:27:53.563Z,14.44
2022-08-31T15:30:58.732Z,14.40
2022-08-31T15:34:06.032Z,14.38
2022-08-31T15:37:14.364Z,14.40
2022-08-31T15:40:18.775Z,14.28
2022-08-31T15:43:23.749Z,14.17
2022-08-31T15:46:46.967Z,14.24
2022-08-31T15:49:52.507Z,14.25
2022-08-31T15:53:00.974Z,13.99
2022-08-31T15:56:07.269Z,14.15
2022-08-31T15:59:12.738Z,13.97
2022-08-31T16:02:21.103Z,13.99
2022-08-31T16:05:31.233Z,13.89
2022-08-31T16:08:35.773Z,14.07
2022-08-31T16:11:40.843Z,14.15
2022-08-31T16:14:46.018Z,14.01
2022-08-31T16:17:51.554Z,13.94
2022-08-31T16:20:57.205Z,13.84
2022-08-31T16:24:05.828Z,13.92
2022-08-31T16:27:15.982Z,13.86
2022-08-31T16:30:21.355Z,13.67
2022-08-31T16:33:25.879Z,13.62
2022-08-31T16:36:31.160Z,13.66
2022-08-31T16:39:37.942Z,13.78
2022-08-31T16:42:43.217Z,13.85
2022-08-31T16:45:48.048Z,13.68
2022-08-31T16:49:11.811Z,13.64
2022-08-31T16:52:22.472Z,13.71
2022-08-31T16:55:26.915Z,13.84
2022-08-31T16:58:51.181Z,13.87
2022-08-31T17:01:57.963Z,13.79
2022-08-31T17:05:05.411Z,13.64
2022-08-31T17:08:15.522Z,13.73
2022-08-31T17:11:24.680Z,13.70
2022-08-31T17:14:36.806Z,13.76
2022-08-31T17:17:41.860Z,13.75
2022-08-31T17:20:46.668Z,13.72
2022-08-31T17:23:53.188Z,13.82
2022-08-31T17:27:00.484Z,13.97
2022-08-31T17:30:08.127Z,14.27
2022-08-31T17:33:13.494Z,14.32
2022-08-31T17:36:21.211Z,14.41
2022-08-31T17:39:27.199Z,14.40
2022-08-31T17:42:35.843Z,14.25
2022-08-31T17:45:40.578Z,14.10
2022-08-31T17:48:46.844Z,14.05
2022-08-31T17:51:54.932Z,14.15
2022-08-31T17:55:02.677Z,14.04
2022-08-31T17:58:08.309Z,14.31
2022-08-31T18:01:14.189Z,14.58
2022-08-31T18:04:21.209Z,13.99
2022-08-31T18:07:26.244Z,14.75
2022-08-31T18:10:31.017Z,14.83
2022-08-31T18:13:35.900Z,14.85
2022-08-31T18:16:42.525Z,14.83
2022-08-31T18:19:47.412Z,14.97
2022-08-31T18:22:53.111Z,14.95
2022-08-31T18:25:57.706Z,15.04
2022-08-31T18:29:02.525Z,15.07
2022-08-31T18:32:09.098Z,15.07
2022-08-31T18:35:15.255Z,15.15
2022-08-31T18:38:20.292Z,15.14
2022-08-31T18:41:45.944Z,15.25
2022-08-31T18:45:08.880Z,15.28
2022-08-31T18:48:24.738Z,15.29
2022-08-31T18:51:30.726Z,15.29
2022-08-31T18:54:35.660Z,15.34
2022-08-31T18:57:48.720Z,15.30
2022-08-31T19:00:59.884Z,15.26
2022-08-31T19:04:05.907Z,15.29
2022-08-31T19:07:10.507Z,15.31
2022-08-31T19:10:15.278Z,15.36
2022-08-31T19:13:19.906Z,15.36
2022-08-31T19:16:28.313Z,15.44
2022-08-31T19:19:33.121Z,15.46
2022-08-31T19:22:37.773Z,15.39
2022-08-31T19:25:44.397Z,15.42
2022-08-31T19:28:51.040Z,15.39
2022-08-31T19:31:58.099Z,15.29
2022-08-31T19:35:03.243Z,15.25
2022-08-31T19:38:08.153Z,15.26
2022-08-31T19:41:17.354Z,15.16
2022-08-31T19:44:23.196Z,15.22
2022-08-31T19:47:27.764Z,15.20
2022-08-31T19:50:32.700Z,15.30
2022-08-31T19:53:40.417Z,15.34
2022-08-31T19:56:49.592Z,15.22
2022-08-31T19:59:54.380Z,15.24
2022-08-31T20:03:00.524Z,15.17
2022-08-31T20:06:08.258Z,15.14
2022-08-31T20:09:14.168Z,15.08
2022-08-31T20:12:19.700Z,15.12
2022-08-31T20:15:23.772Z,15.09
2022-08-31T20:18:29.049Z,15.08
2022-08-31T20:21:35.600Z,15.09
2022-08-31T20:24:44.907Z,15.27
2022-08-31T20:27:50.645Z,15.27
2022-08-31T20:30:59.966Z,15.19
2022-08-31T20:34:04.898Z,15.42
2022-08-31T20:37:09.377Z,15.33
2022-08-31T20:40:17.930Z,15.37
2022-08-31T20:43:23.851Z,15.46
2022-08-31T20:46:48.071Z,15.46
2022-08-31T20:49:57.664Z,15.37
2022-08-31T20:53:02.080Z,15.34
2022-08-31T20:56:07.825Z,15.34
2022-08-31T20:59:12.638Z,15.37
2022-08-31T21:02:18.269Z,15.40
2022-08-31T21:05:40.559Z,15.26
2022-08-31T21:08:45.511Z,15.38
2022-08-31T21:11:50.823Z,15.42
2022-08-31T21:14:57.261Z,15.51
2022-08-31T21:18:02.357Z,15.40
2022-08-31T21:21:09.358Z,15.44
2022-08-31T21:24:16.989Z,15.47
2022-08-31T21:27:21.812Z,15.38
2022-08-31T21:30:26.739Z,15.49
2022-08-31T21:33:31.097Z,15.43
2022-08-31T21:36:36.717Z,15.51
2022-08-31T21:39:42.197Z,15.57
2022-08-31T21:42:47.016Z,15.62
2022-08-31T21:46:24.314Z,15.63
2022-08-31T21:49:28.958Z,15.63
2022-08-31T21:52:33.768Z,15.61
2022-08-31T21:55:39.732Z,15.60
2022-08-31T21:58:44.745Z,15.71
2022-08-31T22:01:49.831Z,15.65
2022-08-31T22:04:54.545Z,15.67
2022-08-31T22:07:59.144Z,15.75
2022-08-31T22:11:10.671Z,15.58
2022-08-31T22:14:20.345Z,15.63
2022-08-31T22:17:42.294Z,15.58
2022-08-31T22:20:50.580Z,15.66
2022-08-31T22:23:58.401Z,15.65
2022-08-31T22:27:06.896Z,15.72
2022-08-31T22:30:12.080Z,15.70
2022-08-31T22:33:16.774Z,15.80
2022-08-31T22:36:31.511Z,15.70
2022-08-31T22:39:36.727Z,15.72
2022-08-31T22:42:41.627Z,15.83
2022-08-31T22:45:48.937Z,15.95
2022-08-31T22:48:53.863Z,15.88
2022-08-31T22:51:58.637Z,16.06
2022-08-31T22:55:03.937Z,16.04
2022-08-31T22:58:08.413Z,16.20
2022-08-31T23:01:28.340Z,16.20
2022-08-31T23:04:35.714Z,16.20
2022-08-31T23:07:40.410Z,16.14
2022-08-31T23:10:45.244Z,16.22
2022-08-31T23:13:58.499Z,16.09
2022-08-31T23:17:09.285Z,16.08
2022-08-31T23:20:20.715Z,16.06
2022-08-31T23:23:25.502Z,15.98
2022-08-31T23:26:32.443Z,16.02
2022-08-31T23:29:48.981Z,16.14
2022-08-31T23:32:54.085Z,15.95
2022-08-31T23:35:59.387Z,16.00
2022-08-31T23:39:05.819Z,15.93
2022-08-31T23:42:12.936Z,15.97
2022-08-31T23:45:18.178Z,15.92
2022-08-31T23:48:23.910Z,15.87
2022-08-31T23:51:28.404Z,15.90
2022-08-31T23:54:33.159Z,15.96
2022-08-31T23:57:38.574Z,15.91
